Blackpool, United Kingdom

7:04 AM BST on July 26, 2016 (GMT +0100)
IENGLAND202 | | Change Station

Elev 30 ft 53.78 °N, 3.01 °W | Updated 8 seconds ago

Partly Cloudy
Partly Cloudy
59.5 °F
Feels Like 59.5 °F
N
0.0
Wind Variable Wind from NW
Gusts 0.0 mph

Today
High -- | Low -- °F
--% Chance of Precip.
Yesterday
High -- | Low -- °F
Precip. -- in
Pressure 30.12 in
Visibility 6.2 miles
Clouds Few 2000 ft
Dew Point 58 °F
Humidity 93%
Rainfall 0.04 in
Snow Depth Not available.
5:17 AM 9:18 PM
Waning Gibbous, 58% visible
METAR EGGP 260550Z 25009KT 9999 FEW020 15/13 Q1020
Pressure 30.12 in
Visibility 6.2 miles
Clouds Few 2000 ft
Dew Point 58 °F
Humidity 93%
Rainfall 0.04 in
Snow Depth Not available.
5:17 AM 9:18 PM
Waning Gibbous, 58% visible
METAR EGGP 260550Z 25009KT 9999 FEW020 15/13 Q1020

10-Day Weather Forecast

×

Almanac

Astronomy

Jul. 26, 2016 Rise Set
Actual Time
Civil Twilight
Nautical Twilight
Astronomical Twilight
Moon
Length of Visible Light
Length of Day
Tomorrow will be .
, % of the Moon is Illuminated

Today's Extremes

Country Highs Country Lows

Community

WunderPhotos

Upload Photos

1,927,547 photos uploaded!

WunderBlog® & News

Nearby

Air Quality

  Air Quality AQ Index Pollutant
Not available.

Snow Depth

Station Depth Elevation

Earthquake Activity

City Distance Mag. Time & Date
Minimum magnitude displayed is 2.5.

Coastal Water Temperatures

Place Temperature

Stations

Nearby Weather Stations

Station Location Temp. Windchill Dew Point Humidity Wind Precip. Elev Updated Type